Time;durP1;ratioP1;P1;durP2;ratioP2;P2;SDS_P1;SDS_P2;PMS_P1;PMS_P2;Temp;Humidity;BMP_temperature;BMP_pressure;BME280_temperature;BME280_humidity;BME280_pressure;Samples;Min_cycle;Max_cycle;Signal;HPM_P1;HPM_P2
2022/12/19 00:01:15;;;;;;;3.00;2.40;;;;;;;21.03;29.20;101866.84;5075542;28;20024;-66
2022/12/19 00:03:48;;;;;;;3.28;2.80;;;;;;;20.98;29.12;101867.31;5077006;28;20028;-67
2022/12/19 00:06:15;;;;;;;4.43;3.22;;;;;;;20.93;29.08;101859.03;5074239;28;20047;-66
2022/12/19 00:08:42;;;;;;;3.35;2.53;;;;;;;20.93;29.19;101847.63;5074896;28;20035;-67
2022/12/19 00:11:10;;;;;;;3.58;2.78;;;;;;;20.92;29.19;101849.44;5074168;28;20405;-67
2022/12/19 00:13:36;;;;;;;3.63;2.85;;;;;;;20.89;29.25;101841.00;5070566;28;20024;-66
2022/12/19 00:16:09;;;;;;;4.30;3.33;;;;;;;20.89;29.35;101839.19;5071995;28;20071;-67
2022/12/19 00:18:35;;;;;;;4.55;3.00;;;;;;;20.87;29.19;101841.16;5072858;28;20047;-67
2022/12/19 00:21:03;;;;;;;2.97;2.60;;;;;;;20.83;29.42;101837.19;5076396;28;20049;-67
2022/12/19 00:23:31;;;;;;;4.28;3.15;;;;;;;20.81;29.31;101831.22;5072746;28;20578;-67
2022/12/19 00:26:15;;;;;;;3.05;2.58;;;;;;;20.81;29.23;101820.63;5073095;28;20490;-67
2022/12/19 00:28:43;;;;;;;4.18;2.72;;;;;;;20.84;29.34;101822.16;5076083;28;20074;-66
2022/12/19 00:31:09;;;;;;;3.22;2.80;;;;;;;20.82;29.31;101811.69;5071696;28;20996;-66
2022/12/19 00:33:34;;;;;;;4.30;3.15;;;;;;;20.79;29.31;101799.59;5075965;28;21133;-67
2022/12/19 00:36:03;;;;;;;3.47;2.72;;;;;;;20.70;29.50;101786.53;5073372;28;20044;-67
2022/12/19 00:38:31;;;;;;;3.70;3.00;;;;;;;20.76;29.48;101789.34;5074053;28;20931;-67
2022/12/19 00:41:16;;;;;;;3.63;2.88;;;;;;;20.70;29.44;101789.19;5081637;28;20059;-66
2022/12/19 00:43:43;;;;;;;3.42;2.88;;;;;;;20.76;29.39;101776.13;5074427;28;20153;-67
2022/12/19 00:46:14;;;;;;;4.00;3.20;;;;;;;20.72;29.16;101774.78;5077439;28;20045;-66
2022/12/19 00:48:41;;;;;;;3.30;2.90;;;;;;;20.74;29.39;101782.56;5072034;28;20033;-66
2022/12/19 00:51:16;;;;;;;3.65;2.92;;;;;;;20.72;29.50;101784.56;5074021;28;20040;-66
2022/12/19 00:53:43;;;;;;;3.20;2.90;;;;;;;20.59;29.70;101778.88;5070577;28;20472;-66
2022/12/19 00:56:12;;;;;;;3.35;3.05;;;;;;;20.68;29.56;101767.34;5094919;27;20050;-66
2022/12/19 00:58:38;;;;;;;3.00;2.60;;;;;;;20.67;29.52;101753.28;5089689;28;20060;-67
2022/12/19 01:01:06;;;;;;;3.72;2.90;;;;;;;20.63;29.55;101751.94;5075241;28;20071;-66
2022/12/19 01:03:32;;;;;;;4.07;3.15;;;;;;;20.64;29.47;101744.81;5071838;28;20763;-67
2022/12/19 01:05:57;;;;;;;3.45;2.70;;;;;;;20.64;29.65;101743.00;5074614;28;20047;-66
2022/12/19 01:08:23;;;;;;;3.63;2.80;;;;;;;20.64;29.60;101740.34;5069873;28;20044;-67
2022/12/19 01:10:51;;;;;;;3.53;2.80;;;;;;;20.65;29.49;101747.34;5070150;28;20035;-66
2022/12/19 01:13:19;;;;;;;3.10;2.67;;;;;;;20.57;29.71;101723.47;5073513;28;20095;-67
2022/12/19 01:15:45;;;;;;;3.15;2.55;;;;;;;20.54;29.70;101704.47;5073240;28;20519;-67
2022/12/19 01:18:11;;;;;;;3.88;2.97;;;;;;;20.60;29.49;101717.03;5075650;28;20028;-67
2022/12/19 01:20:39;;;;;;;3.15;2.80;;;;;;;20.60;29.65;101709.91;5069718;28;20133;-66
2022/12/19 01:23:05;;;;;;;3.22;2.80;;;;;;;20.60;29.55;101709.91;5073546;28;20260;-67
2022/12/19 01:25:32;;;;;;;3.90;2.83;;;;;;;20.58;29.52;101716.38;5056250;28;20032;-67
2022/12/19 01:27:58;;;;;;;3.67;2.78;;;;;;;20.48;29.76;101722.66;5073218;28;20055;-66
2022/12/19 01:30:24;;;;;;;2.90;2.53;;;;;;;20.60;29.56;101735.56;5072223;28;20131;-65
2022/12/19 01:32:50;;;;;;;3.45;2.75;;;;;;;20.45;29.82;101724.78;5071601;28;20520;-66
2022/12/19 01:35:15;;;;;;;2.85;2.58;;;;;;;20.46;29.81;101721.13;5069984;28;20028;-67
2022/12/19 01:37:41;;;;;;;3.58;3.00;;;;;;;20.52;29.62;101715.22;5071946;28;20949;-66
2022/12/19 01:40:07;;;;;;;3.63;2.78;;;;;;;20.50;29.58;101709.25;5068280;28;21905;-66
2022/12/19 01:42:35;;;;;;;3.42;2.70;;;;;;;20.51;29.65;101705.63;5073120;28;20461;-65
2022/12/19 01:45:06;;;;;;;2.72;2.53;;;;;;;20.39;29.70;101701.59;5076776;28;20393;-65
2022/12/19 01:47:39;;;;;;;3.40;3.10;;;;;;;20.41;29.84;101689.88;5071521;28;20572;-65
2022/12/19 01:50:13;;;;;;;2.92;2.63;;;;;;;20.45;29.74;101690.38;5079094;28;20063;-66
2022/12/19 01:52:39;;;;;;;3.83;3.03;;;;;;;20.50;29.72;101694.22;5074813;28;20027;-66
2022/12/19 01:55:05;;;;;;;3.60;2.80;;;;;;;20.46;29.75;101686.75;5072063;28;20793;-66
2022/12/19 01:57:31;;;;;;;5.32;3.45;;;;;;;20.42;29.79;101688.88;5059575;28;20081;-66
2022/12/19 01:59:59;;;;;;;3.85;2.95;;;;;;;20.26;29.77;101680.88;5072035;28;20040;-67
2022/12/19 02:02:32;;;;;;;3.22;2.83;;;;;;;20.36;29.95;101681.59;5071693;28;20089;-66
2022/12/19 02:05:00;;;;;;;2.83;2.55;;;;;;;20.40;29.83;101679.44;5075336;28;20037;-66
2022/12/19 02:07:27;;;;;;;3.28;2.85;;;;;;;20.37;29.92;101679.75;5076970;28;20550;-67
2022/12/19 02:09:54;;;;;;;3.20;2.90;;;;;;;20.41;29.92;101663.44;5076942;28;20032;-67
2022/12/19 02:12:21;;;;;;;3.58;3.08;;;;;;;20.42;29.74;101664.25;5075076;28;20541;-67
2022/12/19 02:14:47;;;;;;;3.40;2.85;;;;;;;20.43;29.68;101650.03;5072098;28;20032;-66
2022/12/19 02:17:16;;;;;;;3.42;3.03;;;;;;;20.35;29.88;101652.66;5073721;28;20043;-66
2022/12/19 02:20:00;;;;;;;3.55;2.78;;;;;;;20.37;29.90;101640.09;5076025;28;20036;-66
2022/12/19 02:22:38;;;;;;;3.85;3.00;;;;;;;20.36;29.96;101638.44;5073100;28;20083;-66
2022/12/19 02:25:31;;;;;;;4.47;3.08;;;;;;;20.32;29.98;101642.41;5076901;28;20044;-66
2022/12/19 02:28:19;;;;;;;3.30;3.00;;;;;;;20.35;29.79;101644.72;5076606;28;20056;-67
2022/12/19 02:30:47;;;;;;;3.13;2.80;;;;;;;20.36;30.01;101649.84;5073232;28;20105;-66
2022/12/19 02:33:27;;;;;;;3.00;2.42;;;;;;;20.31;29.90;101646.88;5074685;28;20032;-66
2022/12/19 02:35:56;;;;;;;3.85;2.85;;;;;;;20.22;29.93;101653.13;5091073;28;20038;-67
2022/12/19 02:38:36;;;;;;;3.33;2.90;;;;;;;20.35;29.86;101647.38;5071087;28;20070;-67
2022/12/19 02:41:01;;;;;;;3.35;2.67;;;;;;;20.31;29.90;101664.56;5074047;28;20044;-67
2022/12/19 02:43:31;;;;;;;3.25;2.90;;;;;;;20.28;29.96;101659.56;5078534;28;20036;-66
2022/12/19 02:45:59;;;;;;;2.92;2.60;;;;;;;20.26;30.00;101654.44;5072029;28;20054;-66
2022/12/19 02:48:26;;;;;;;3.22;2.70;;;;;;;20.22;30.16;101647.81;5091375;28;20052;-66
2022/12/19 02:50:51;;;;;;;3.70;2.80;;;;;;;20.29;29.97;101632.97;5078739;28;20048;-65
2022/12/19 02:53:17;;;;;;;3.35;2.88;;;;;;;20.30;29.97;101628.53;5072758;28;20024;-68
2022/12/19 02:55:57;;;;;;;3.33;2.60;;;;;;;20.28;29.96;101622.53;5072572;28;20039;-66
2022/12/19 02:58:38;;;;;;;4.03;2.80;;;;;;;20.33;29.96;101623.72;5080262;28;20036;-66
2022/12/19 03:01:21;;;;;;;3.22;2.65;;;;;;;20.16;30.07;101604.34;5074470;28;20393;-66
2022/12/19 03:04:17;;;;;;;3.40;3.00;;;;;;;20.26;30.00;101612.13;5071451;28;20077;-65
2022/12/19 03:07:09;;;;;;;3.78;3.38;;;;;;;20.23;30.04;101618.56;5072401;28;20390;-66
2022/12/19 03:09:53;;;;;;;;;;;;;;;20.20;30.13;101618.91;5072998;28;20028;-67
2022/12/19 03:12:47;;;;;;;2.90;2.55;;;;;;;20.13;30.21;101609.97;5073422;28;20015;-69
2022/12/19 03:15:14;;;;;;;3.58;2.80;;;;;;;20.22;30.04;101594.94;5077054;28;20051;-66
2022/12/19 03:17:40;;;;;;;3.80;2.90;;;;;;;20.04;30.10;101578.38;5072981;28;20037;-67
2022/12/19 03:20:19;;;;;;;3.40;3.10;;;;;;;20.20;30.13;101588.97;5076956;28;20066;-67
2022/12/19 03:22:45;;;;;;;3.37;2.90;;;;;;;20.20;30.06;101587.16;5077033;28;20119;-67
2022/12/19 03:25:10;;;;;;;3.67;3.08;;;;;;;20.18;30.11;101586.50;5069159;28;21520;-67
2022/12/19 03:27:38;;;;;;;3.28;2.97;;;;;;;20.12;30.20;101571.31;5073407;28;20052;-66
2022/12/19 03:30:10;;;;;;;3.72;3.00;;;;;;;20.20;30.11;101573.13;5076420;28;20331;-67
2022/12/19 03:32:39;;;;;;;3.47;2.85;;;;;;;20.20;30.08;101562.53;5078395;28;20055;-66
2022/12/19 03:35:22;;;;;;;3.72;2.90;;;;;;;20.17;30.18;101562.88;5071363;28;20043;-64
2022/12/19 03:37:51;;;;;;;3.20;2.90;;;;;;;20.12;30.21;101568.66;5078970;28;20042;-66
2022/12/19 03:40:22;;;;;;;3.30;2.85;;;;;;;20.13;30.18;101570.31;5077088;28;20036;-66
2022/12/19 03:43:09;;;;;;;3.15;2.72;;;;;;;20.11;30.26;101574.13;5077532;28;20085;-66
2022/12/19 03:45:48;;;;;;;3.35;2.95;;;;;;;20.18;30.09;101569.81;5077299;28;20052;-67
2022/12/19 03:48:39;;;;;;;3.55;3.10;;;;;;;20.13;30.25;101567.66;5075904;28;20060;-66
2022/12/19 03:51:26;;;;;;;3.45;3.10;;;;;;;20.15;30.35;101565.69;5076508;28;20054;-66
2022/12/19 03:54:02;;;;;;;3.45;2.75;;;;;;;20.09;30.31;101566.31;5073806;28;20032;-66
2022/12/19 03:56:30;;;;;;;2.92;2.42;;;;;;;20.10;30.32;101567.97;5074658;28;20689;-67
2022/12/19 03:59:09;;;;;;;3.28;2.72;;;;;;;20.06;30.41;101550.78;5076169;28;20032;-66
2022/12/19 04:01:36;;;;;;;3.55;2.60;;;;;;;20.10;30.33;101551.28;5070081;28;20551;-66
2022/12/19 04:04:03;;;;;;;3.08;2.70;;;;;;;20.01;30.62;101554.91;5076935;28;20040;-66
2022/12/19 04:06:31;;;;;;;3.30;2.55;;;;;;;20.09;30.27;101545.16;5074177;28;20044;-66
2022/12/19 04:08:59;;;;;;;3.63;2.80;;;;;;;20.06;30.35;101536.75;5073178;28;20985;-67
2022/12/19 04:11:29;;;;;;;3.00;2.70;;;;;;;20.04;30.33;101530.78;5075316;28;20123;-66
2022/12/19 04:14:07;;;;;;;3.35;2.65;;;;;;;20.01;30.46;101516.09;5074146;28;20140;-66
2022/12/19 04:16:35;;;;;;;2.97;2.70;;;;;;;19.97;30.57;101513.94;5092856;27;20546;-66
2022/12/19 04:19:28;;;;;;;3.53;2.63;;;;;;;20.00;30.52;101519.72;5070838;28;20068;-66
2022/12/19 04:22:09;;;;;;;3.08;2.72;;;;;;;19.93;30.49;101508.16;5050034;28;20548;-66
2022/12/19 04:24:39;;;;;;;3.30;2.58;;;;;;;20.03;30.32;101506.19;5074313;28;20063;-66
2022/12/19 04:27:07;;;;;;;3.25;2.70;;;;;;;20.04;30.44;101512.28;5074573;28;20483;-67
2022/12/19 04:29:35;;;;;;;3.35;2.65;;;;;;;20.03;30.46;101508.81;5065020;28;20659;-67
2022/12/19 04:32:05;;;;;;;3.13;2.60;;;;;;;20.00;30.49;101500.41;5073275;28;20024;-66
2022/12/19 04:34:30;;;;;;;3.22;2.85;;;;;;;19.97;30.53;101504.19;5077960;28;20040;-66
2022/12/19 04:36:56;;;;;;;2.90;2.40;;;;;;;20.06;30.40;101510.31;5071529;28;20052;-66
2022/12/19 04:39:21;;;;;;;3.30;2.75;;;;;;;20.07;30.39;101499.56;5072340;28;20394;-66
2022/12/19 04:41:47;;;;;;;2.97;2.70;;;;;;;20.02;30.38;101508.97;5071362;28;20040;-67
2022/12/19 04:44:12;;;;;;;3.70;2.95;;;;;;;19.98;30.53;101494.44;5073538;28;20794;-66
2022/12/19 04:46:38;;;;;;;3.10;2.60;;;;;;;19.98;30.81;101489.16;5073581;28;20066;-67
2022/12/19 04:49:04;;;;;;;4.43;2.67;;;;;;;20.04;30.45;101494.59;5074726;28;20473;-67
2022/12/19 04:51:29;;;;;;;2.97;2.60;;;;;;;20.03;30.46;101485.03;5072897;28;20046;-67
2022/12/19 04:53:55;;;;;;;3.53;3.10;;;;;;;20.00;30.55;101480.06;5072851;28;20058;-67
2022/12/19 04:56:20;;;;;;;3.25;2.60;;;;;;;19.97;30.57;101474.28;5074253;28;20482;-67
2022/12/19 04:58:45;;;;;;;2.88;2.58;;;;;;;20.02;30.40;101470.16;5075952;28;20036;-66
2022/12/19 05:01:13;;;;;;;3.17;2.65;;;;;;;20.00;30.27;101456.28;5073006;28;20048;-67
2022/12/19 05:03:39;;;;;;;3.70;2.92;;;;;;;19.94;30.48;101459.59;5074590;28;20474;-67
2022/12/19 05:06:07;;;;;;;3.03;2.67;;;;;;;19.94;30.47;101453.47;5073696;28;20725;-66
2022/12/19 05:08:33;;;;;;;3.13;2.58;;;;;;;19.98;30.55;101462.72;5076297;28;20161;-66
2022/12/19 05:11:00;;;;;;;2.90;2.60;;;;;;;19.92;30.31;101445.69;5066695;28;20043;-67
2022/12/19 05:13:27;;;;;;;2.92;2.40;;;;;;;19.97;30.58;101451.31;5077414;28;20028;-67
2022/12/19 05:16:11;;;;;;;3.47;2.60;;;;;;;19.98;30.47;101447.69;5068830;28;20037;-66
2022/12/19 05:18:38;;;;;;;3.22;2.42;;;;;;;19.95;30.60;101447.19;5070650;28;20036;-67
2022/12/19 05:21:04;;;;;;;3.20;2.55;;;;;;;19.91;30.59;101436.94;5073244;28;20067;-66
2022/12/19 05:23:29;;;;;;;3.47;2.85;;;;;;;19.99;30.40;101436.13;5072916;28;20694;-67
2022/12/19 05:26:00;;;;;;;2.90;2.60;;;;;;;19.82;30.60;101424.72;5071046;28;20047;-66
2022/12/19 05:28:26;;;;;;;3.05;2.47;;;;;;;19.91;30.72;101423.72;5072518;28;20466;-67
2022/12/19 05:31:01;;;;;;;2.83;2.50;;;;;;;19.92;30.67;101424.53;5072601;28;20036;-67
2022/12/19 05:33:27;;;;;;;3.30;2.47;;;;;;;19.90;30.69;101424.72;5072719;28;20089;-67
2022/12/19 05:35:52;;;;;;;2.92;2.58;;;;;;;19.88;30.61;101410.84;5075123;28;20045;-67
2022/12/19 05:38:18;;;;;;;2.97;2.67;;;;;;;19.86;30.67;101418.09;5075016;28;20032;-66
2022/12/19 05:40:43;;;;;;;3.75;2.70;;;;;;;19.84;30.76;101413.97;5075424;28;20036;-67
2022/12/19 05:43:09;;;;;;;3.35;2.40;;;;;;;19.89;30.75;101411.66;5072708;28;20509;-67
2022/12/19 05:45:37;;;;;;;3.72;2.50;;;;;;;19.86;30.63;101417.28;5075344;28;20089;-66
2022/12/19 05:48:03;;;;;;;2.88;2.55;;;;;;;19.90;30.66;101423.88;5071347;28;20079;-66
2022/12/19 05:50:28;;;;;;;2.78;2.33;;;;;;;19.87;30.66;101414.47;5070789;28;20546;-67
2022/12/19 05:52:54;;;;;;;3.25;2.40;;;;;;;19.92;30.73;101420.09;5072217;28;20644;-67
2022/12/19 05:55:19;;;;;;;2.78;2.40;;;;;;;19.88;30.59;101410.84;5074361;28;20055;-67
2022/12/19 05:57:45;;;;;;;2.60;2.40;;;;;;;19.79;30.85;101419.78;5070376;28;20036;-67
2022/12/19 06:00:11;;;;;;;2.50;2.28;;;;;;;19.84;30.75;101409.53;5072276;28;20047;-66
2022/12/19 06:02:39;;;;;;;3.25;2.65;;;;;;;19.82;30.77;101398.28;5071930;28;20078;-66
2022/12/19 06:05:05;;;;;;;3.10;2.80;;;;;;;19.80;30.79;101410.84;5072041;28;20040;-67
2022/12/19 06:07:30;;;;;;;3.13;2.50;;;;;;;19.78;30.81;101399.63;5073246;28;20040;-67
2022/12/19 06:09:56;;;;;;;3.05;2.50;;;;;;;19.75;30.75;101394.69;5075415;28;20132;-66
2022/12/19 06:12:22;;;;;;;2.90;2.60;;;;;;;19.79;30.85;101403.91;5073339;28;20059;-67
2022/12/19 06:14:48;;;;;;;2.35;2.10;;;;;;;19.85;30.75;101407.72;5073969;28;20456;-66
2022/12/19 06:17:13;;;;;;;2.67;2.45;;;;;;;19.80;30.84;101404.75;5070678;28;20040;-67
2022/12/19 06:19:39;;;;;;;2.50;2.30;;;;;;;19.84;30.96;101401.59;5076609;28;20043;-67
2022/12/19 06:22:04;;;;;;;2.58;2.30;;;;;;;19.85;30.86;101397.13;5073208;28;20040;-66
2022/12/19 06:24:30;;;;;;;2.42;2.10;;;;;;;19.83;30.80;101401.75;5073232;28;20032;-67
2022/12/19 06:26:55;;;;;;;3.45;2.58;;;;;;;19.88;30.80;101399.44;5071157;28;20056;-66
2022/12/19 06:29:21;;;;;;;3.78;2.50;;;;;;;19.87;30.70;101395.16;5072815;28;20101;-67
2022/12/19 06:31:46;;;;;;;3.00;2.47;;;;;;;19.87;30.82;101403.91;5072119;28;20455;-66
2022/12/19 06:34:12;;;;;;;2.40;2.20;;;;;;;19.83;30.76;101386.72;5075242;28;20036;-66
2022/12/19 06:36:37;;;;;;;2.55;2.35;;;;;;;20.36;30.15;101389.78;5071239;28;20040;-67
2022/12/19 06:39:03;;;;;;;2.85;2.33;;;;;;;21.46;28.78;101387.97;5074411;28;20094;-67
2022/12/19 06:44:15;;;;;;;3.15;2.47;;;;;;;22.59;27.48;101388.72;5076147;28;20115;-67
2022/12/19 06:46:41;;;;;;;2.47;2.20;;;;;;;22.80;27.29;101385.31;5078549;28;20553;-66
2022/12/19 06:49:08;;;;;;;2.63;2.33;;;;;;;22.67;27.36;101366.59;5076410;28;20028;-66
2022/12/19 06:51:34;;;;;;;2.08;1.88;;;;;;;22.61;27.58;101376.91;5077499;28;20036;-66
2022/12/19 06:54:00;;;;;;;3.05;2.30;;;;;;;22.43;28.03;101368.50;5077736;28;20591;-66
2022/12/19 06:56:25;;;;;;;2.13;1.90;;;;;;;22.36;28.25;101362.31;5075770;28;20040;-67
2022/12/19 06:58:51;;;;;;;2.78;2.20;;;;;;;22.18;28.25;101351.25;5077670;28;20054;-67
2022/12/19 07:01:29;;;;;;;2.25;1.90;;;;;;;21.97;28.66;101360.72;5070854;28;20043;-67
2022/12/19 07:03:55;;;;;;;2.42;2.22;;;;;;;21.76;28.88;101351.81;5071923;28;20702;-67
2022/12/19 07:06:22;;;;;;;2.15;1.95;;;;;;;21.61;29.53;101367.66;5071102;28;20040;-67
2022/12/19 07:08:47;;;;;;;2.28;2.00;;;;;;;21.55;29.31;101339.25;5073075;28;20062;-67
2022/12/19 07:11:13;;;;;;;2.42;2.22;;;;;;;21.46;29.44;101361.50;5071693;28;20045;-66
2022/12/19 07:13:38;;;;;;;2.47;1.98;;;;;;;21.39;29.59;101346.31;5078313;28;20039;-66
2022/12/19 07:16:04;;;;;;;2.03;1.83;;;;;;;21.39;29.45;101369.34;5069322;28;20036;-67
2022/12/19 07:18:34;;;;;;;2.17;2.00;;;;;;;21.36;29.50;101359.91;5073702;28;20040;-66
2022/12/19 07:21:00;;;;;;;;;;;;;;;21.27;29.90;101360.97;5071561;28;20093;-67
2022/12/19 07:23:27;;;;;;;3.42;2.20;;;;;;;21.23;29.86;101372.06;5076892;28;19924;-66
2022/12/19 07:25:53;;;;;;;2.45;2.20;;;;;;;21.21;29.81;101366.13;5072885;28;20027;-67
2022/12/19 07:28:18;;;;;;;2.30;2.10;;;;;;;21.08;30.22;101379.94;5071070;28;20035;-66
2022/12/19 07:30:44;;;;;;;1.98;1.77;;;;;;;20.97;30.26;101375.00;5074012;28;20047;-67
2022/12/19 07:33:10;;;;;;;2.08;1.88;;;;;;;21.00;30.26;101361.41;5071055;28;20044;-66
2022/12/19 07:35:35;;;;;;;2.20;2.00;;;;;;;21.06;30.28;101371.34;5071902;28;20391;-67
2022/12/19 07:38:06;;;;;;;2.03;1.92;;;;;;;21.61;29.64;101372.97;5075249;28;20036;-67
2022/12/19 07:40:32;;;;;;;2.10;1.90;;;;;;;22.31;28.41;101362.03;5069695;28;20090;-67
2022/12/19 07:42:59;;;;;;;2.13;1.92;;;;;;;22.71;27.67;101357.25;5059799;28;20045;-67
2022/12/19 07:45:25;;;;;;;1.92;1.83;;;;;;;22.76;27.85;101355.66;5077691;28;20123;-66
2022/12/19 07:47:51;;;;;;;2.58;1.90;;;;;;;22.78;27.97;101358.13;5067479;28;20105;-66
2022/12/19 07:50:16;;;;;;;2.28;1.90;;;;;;;22.74;28.08;101351.56;5069962;28;20044;-66
2022/12/19 07:52:42;;;;;;;2.53;1.90;;;;;;;22.66;28.04;101359.63;5076381;28;20055;-66
2022/12/19 07:55:08;;;;;;;2.13;1.77;;;;;;;22.49;28.36;101361.66;5070292;28;20474;-66
2022/12/19 07:57:34;;;;;;;1.60;1.50;;;;;;;22.34;28.79;101360.84;5073860;28;20141;-66
2022/12/19 08:00:00;;;;;;;1.92;1.65;;;;;;;22.16;28.84;101367.34;5075580;28;20131;-67
2022/12/19 08:02:25;;;;;;;2.40;1.90;;;;;;;22.05;29.38;101365.13;5074001;28;20028;-66
2022/12/19 08:04:51;;;;;;;1.90;1.70;;;;;;;21.96;29.42;101366.19;5070976;28;20028;-66
2022/12/19 08:07:17;;;;;;;1.88;1.77;;;;;;;21.90;29.44;101358.94;5071783;28;20036;-66
2022/12/19 08:09:42;;;;;;;1.55;1.45;;;;;;;21.86;29.24;101373.56;5072603;28;20051;-67
2022/12/19 08:12:09;;;;;;;1.75;1.65;;;;;;;21.83;29.46;101363.31;5073000;28;20036;-67
2022/12/19 08:14:34;;;;;;;2.47;1.40;;;;;;;21.78;29.68;101361.22;5072913;28;20762;-67
2022/12/19 08:17:00;;;;;;;1.70;1.60;;;;;;;21.70;29.79;101363.94;5075089;28;20040;-67
2022/12/19 08:19:25;;;;;;;1.80;1.70;;;;;;;21.64;29.70;101354.88;5074984;28;20044;-67
2022/12/19 08:21:51;;;;;;;1.65;1.55;;;;;;;21.58;29.86;101360.91;5091230;28;20491;-67
2022/12/19 08:24:17;;;;;;;1.70;1.60;;;;;;;21.50;30.10;101368.06;5071218;28;20039;-67
2022/12/19 08:26:42;;;;;;;1.70;1.60;;;;;;;21.47;29.89;101365.78;5070479;28;20060;-66
2022/12/19 08:29:08;;;;;;;3.15;2.00;;;;;;;21.37;30.41;101364.22;5074963;28;20047;-66
2022/12/19 08:36:21;;;;;;;1.85;1.75;;;;;;;21.31;30.35;101369.38;5071942;28;20039;-67
2022/12/19 08:39:19;;;;;;;1.77;1.58;;;;;;;21.20;30.38;101361.81;5068718;28;20043;-65
2022/12/19 08:41:44;;;;;;;2.40;2.20;;;;;;;21.15;30.34;101364.97;5072950;28;20044;-66
2022/12/19 08:44:11;;;;;;;1.65;1.33;;;;;;;21.07;30.58;101354.44;5076616;28;20047;-67
2022/12/19 08:46:36;;;;;;;1.80;1.65;;;;;;;21.07;30.53;101372.97;5069626;28;20949;-66
2022/12/19 08:49:02;;;;;;;1.50;1.30;;;;;;;21.05;30.73;101361.75;5074130;28;20037;-67
2022/12/19 08:51:27;;;;;;;1.55;1.45;;;;;;;20.99;30.62;101357.94;5067703;28;20074;-66
2022/12/19 08:53:53;;;;;;;1.67;1.58;;;;;;;20.98;30.59;101366.88;5069155;28;20467;-66
2022/12/19 08:56:20;;;;;;;1.60;1.50;;;;;;;20.92;30.68;101361.47;5070964;28;20055;-66
2022/12/19 08:58:46;;;;;;;1.33;1.23;;;;;;;20.97;31.01;101372.34;5074621;28;20050;-67
2022/12/19 09:01:15;;;;;;;1.70;1.55;;;;;;;20.99;30.80;101371.19;5074222;28;20646;-66
2022/12/19 09:03:41;;;;;;;1.52;1.42;;;;;;;20.89;30.84;101367.13;5073269;28;20081;-67
2022/12/19 09:06:09;;;;;;;1.65;1.55;;;;;;;20.88;30.87;101361.00;5076479;28;20151;-66
2022/12/19 09:08:35;;;;;;;1.30;1.20;;;;;;;20.89;30.81;101364.47;5079573;28;20658;-66
2022/12/19 09:11:07;;;;;;;1.40;1.30;;;;;;;21.25;30.17;101364.78;5074795;28;20055;-66
2022/12/19 09:13:34;;;;;;;1.40;1.30;;;;;;;21.72;29.72;101364.56;5075361;28;20028;-66
2022/12/19 09:16:15;;;;;;;2.13;1.60;;;;;;;22.10;29.00;101372.56;5076945;28;20063;-67
2022/12/19 09:18:43;;;;;;;1.80;1.70;;;;;;;22.07;29.19;101367.59;5076435;28;20032;-67
2022/12/19 09:21:09;;;;;;;1.90;1.67;;;;;;;21.83;29.84;101365.97;5073870;28;20508;-65
2022/12/19 09:23:35;;;;;;;1.55;1.45;;;;;;;21.83;29.59;101358.03;5075615;28;20044;-65
2022/12/19 09:26:11;;;;;;;1.20;1.10;;;;;;;21.77;29.73;101361.41;5077488;28;20164;-65
2022/12/19 09:28:38;;;;;;;1.75;1.63;;;;;;;21.73;29.92;101370.72;5078756;28;20028;-64
2022/12/19 09:31:07;;;;;;;1.40;1.30;;;;;;;21.69;29.79;101363.09;5077954;28;20036;-65
2022/12/19 09:33:34;;;;;;;1.70;1.60;;;;;;;21.68;30.00;101365.94;5069955;28;20487;-64
2022/12/19 09:36:00;;;;;;;2.03;1.30;;;;;;;21.58;30.12;101379.44;5079402;28;20597;-64
2022/12/19 09:38:28;;;;;;;1.58;1.48;;;;;;;21.54;30.16;101372.00;5075211;28;20393;-64
2022/12/19 09:40:56;;;;;;;1.85;1.40;;;;;;;21.42;30.48;101383.03;5077775;28;20462;-64
2022/12/19 09:43:50;;;;;;;1.30;1.20;;;;;;;21.29;30.28;101374.84;5078277;28;20112;-63
2022/12/19 09:46:24;;;;;;;1.75;1.60;;;;;;;21.16;30.60;101360.50;5075984;28;20044;-65
2022/12/19 09:48:53;;;;;;;2.20;1.23;;;;;;;21.09;30.61;101366.50;5072656;28;20031;-64
2022/12/19 09:51:31;;;;;;;2.08;1.42;;;;;;;21.07;30.67;101368.50;5078240;28;20115;-64
2022/12/19 09:54:11;;;;;;;1.23;1.13;;;;;;;20.98;30.76;101371.34;5075326;28;20120;-64
2022/12/19 09:56:40;;;;;;;2.03;1.40;;;;;;;20.91;31.17;101379.19;5077477;28;20036;-65
2022/12/19 09:59:14;;;;;;;1.65;1.27;;;;;;;20.91;30.88;101371.25;5077812;28;20036;-65
2022/12/19 10:02:08;;;;;;;1.15;1.05;;;;;;;21.05;30.73;101367.88;5072461;28;20284;-65
2022/12/19 10:04:35;;;;;;;1.38;1.27;;;;;;;20.95;30.79;101380.47;5074921;28;20063;-65
2022/12/19 10:07:01;;;;;;;1.42;1.25;;;;;;;20.89;31.07;101380.38;5070603;28;20883;-65
2022/12/19 10:09:33;;;;;;;1.42;1.33;;;;;;;20.95;31.01;101391.06;5076756;28;20492;-64
2022/12/19 10:12:46;;;;;;;1.30;1.20;;;;;;;21.21;30.63;101387.31;5027490;28;20115;-68
2022/12/19 10:15:28;;;;;;;1.50;1.38;;;;;;;21.17;30.93;101378.03;5071269;28;20048;-66
2022/12/19 10:17:56;;;;;;;1.67;1.58;;;;;;;21.28;31.03;101388.28;5069797;28;20067;-66
2022/12/19 10:20:47;;;;;;;1.35;1.25;;;;;;;21.53;30.44;101376.47;5074011;28;20364;-64
2022/12/19 10:23:37;;;;;;;1.70;1.13;;;;;;;21.63;30.21;101368.31;5041074;28;20086;-64
2022/12/19 10:26:19;;;;;;;1.55;1.45;;;;;;;21.69;30.20;101380.84;5074861;28;20040;-64
2022/12/19 10:29:19;;;;;;;1.48;1.38;;;;;;;21.67;30.12;101372.25;5053378;28;20142;-64
2022/12/19 10:31:58;;;;;;;1.50;1.40;;;;;;;21.60;30.11;101382.75;5071072;28;20133;-64
2022/12/19 10:34:32;;;;;;;1.70;1.60;;;;;;;21.56;30.00;101375.34;5084424;28;20474;-64
2022/12/19 10:37:08;;;;;;;1.20;1.10;;;;;;;21.52;30.12;101377.50;5073252;28;20034;-64
2022/12/19 10:40:22;;;;;;;1.50;1.40;;;;;;;21.48;30.56;101372.72;5076603;28;20037;-64
2022/12/19 10:43:01;;;;;;;1.60;1.50;;;;;;;21.42;30.46;101377.75;5013780;28;20168;-64
2022/12/19 10:45:36;;;;;;;1.27;1.17;;;;;;;21.41;30.56;101376.09;5053668;28;20064;-66
2022/12/19 10:48:03;;;;;;;1.30;1.20;;;;;;;21.39;30.35;101377.28;5070940;28;20870;-64
2022/12/19 10:50:29;;;;;;;1.90;1.80;;;;;;;21.39;30.55;101369.34;5094002;28;20115;-66
2022/12/19 10:53:06;;;;;;;1.25;1.15;;;;;;;21.38;30.55;101359.75;5074946;28;20402;-64
2022/12/19 10:55:38;;;;;;;1.60;1.50;;;;;;;21.31;30.84;101364.91;5076279;28;20115;-65
2022/12/19 10:58:30;;;;;;;1.40;1.30;;;;;;;21.35;30.69;101366.19;5066996;28;20045;-67
2022/12/19 11:01:05;;;;;;;1.20;1.08;;;;;;;21.33;30.67;101367.38;5065930;28;20063;-64
2022/12/19 11:03:32;;;;;;;1.45;1.35;;;;;;;21.29;30.74;101355.47;5077124;28;20039;-66
2022/12/19 11:05:59;;;;;;;1.50;1.40;;;;;;;21.27;30.93;101355.66;5080266;28;20448;-64
2022/12/19 11:08:32;;;;;;;1.60;1.50;;;;;;;21.31;30.84;101358.78;5074366;28;21064;-66
2022/12/19 11:11:03;;;;;;;1.40;1.30;;;;;;;21.31;30.73;101354.31;5077910;28;20786;-66
2022/12/19 11:13:45;;;;;;;1.20;1.10;;;;;;;21.28;30.64;101362.59;5075856;28;20200;-66
2022/12/19 11:16:12;;;;;;;1.23;1.08;;;;;;;21.28;30.79;101361.78;5062713;28;20047;-66
2022/12/19 11:18:43;;;;;;;1.52;1.38;;;;;;;21.26;30.60;101366.44;5063934;28;20316;-66
2022/12/19 11:21:27;;;;;;;1.70;1.23;;;;;;;21.25;30.87;101362.97;5069482;28;20436;-66
2022/12/19 11:24:04;;;;;;;1.42;1.33;;;;;;;21.24;30.66;101356.03;5072657;28;20491;-66
2022/12/19 11:26:38;;;;;;;1.38;1.27;;;;;;;21.23;30.54;101357.00;5076640;28;20498;-66
2022/12/19 11:29:15;;;;;;;1.55;1.45;;;;;;;21.23;30.65;101349.03;5073367;28;20032;-66
2022/12/19 11:31:41;;;;;;;1.40;1.10;;;;;;;21.21;30.75;101355.53;5065515;28;21479;-65
2022/12/19 11:34:14;;;;;;;1.40;1.30;;;;;;;21.20;30.65;101352.06;5059500;28;20044;-66
2022/12/19 11:37:22;;;;;;;1.50;1.30;;;;;;;21.18;30.78;101351.38;5074354;28;20086;-64
2022/12/19 11:40:22;;;;;;;1.67;1.20;;;;;;;21.14;30.65;101352.72;5068699;28;20054;-67
2022/12/19 11:42:57;;;;;;;1.27;1.17;;;;;;;21.15;30.79;101354.38;5070250;28;20536;-64
2022/12/19 11:46:00;;;;;;;1.27;1.17;;;;;;;21.16;30.62;101349.91;5075612;28;20044;-64
2022/12/19 11:48:34;;;;;;;1.17;1.15;;;;;;;21.09;30.75;101345.31;5053817;28;20066;-64
2022/12/19 11:51:26;;;;;;;1.38;1.27;;;;;;;21.16;30.77;101348.06;5056429;28;20050;-64